sensor_id;sensor_type;location;lat;lon;timestamp;P1;durP1;ratioP1;P2;durP2;ratioP2
46415;SDS011;32620;51.704;7.822;2023-08-20T00:00:26;65.28;;;40.20;;
46415;SDS011;32620;51.704;7.822;2023-08-20T00:02:55;71.43;;;42.88;;
46415;SDS011;32620;51.704;7.822;2023-08-20T00:05:26;57.30;;;38.83;;
46415;SDS011;32620;51.704;7.822;2023-08-20T00:07:52;61.92;;;41.28;;
46415;SDS011;32620;51.704;7.822;2023-08-20T00:10:17;55.47;;;36.92;;
46415;SDS011;32620;51.704;7.822;2023-08-20T00:12:43;53.67;;;36.33;;
46415;SDS011;32620;51.704;7.822;2023-08-20T00:15:09;58.13;;;38.63;;
46415;SDS011;32620;51.704;7.822;2023-08-20T00:17:35;64.95;;;38.80;;
46415;SDS011;32620;51.704;7.822;2023-08-20T00:20:03;62.47;;;40.80;;
46415;SDS011;32620;51.704;7.822;2023-08-20T00:22:34;62.78;;;37.03;;
46415;SDS011;32620;51.704;7.822;2023-08-20T00:25:00;65.82;;;38.50;;
46415;SDS011;32620;51.704;7.822;2023-08-20T00:27:28;61.13;;;39.33;;
46415;SDS011;32620;51.704;7.822;2023-08-20T00:29:53;70.85;;;39.88;;
46415;SDS011;32620;51.704;7.822;2023-08-20T00:32:19;71.72;;;43.55;;
46415;SDS011;32620;51.704;7.822;2023-08-20T00:34:44;65.05;;;40.47;;
46415;SDS011;32620;51.704;7.822;2023-08-20T00:37:10;75.13;;;47.45;;
46415;SDS011;32620;51.704;7.822;2023-08-20T00:39:37;75.80;;;45.03;;
46415;SDS011;32620;51.704;7.822;2023-08-20T00:42:03;58.30;;;39.13;;
46415;SDS011;32620;51.704;7.822;2023-08-20T00:44:29;66.38;;;42.72;;
46415;SDS011;32620;51.704;7.822;2023-08-20T00:46:55;55.88;;;38.75;;
46415;SDS011;32620;51.704;7.822;2023-08-20T00:49:21;52.08;;;34.40;;
46415;SDS011;32620;51.704;7.822;2023-08-20T00:51:47;45.15;;;30.77;;
46415;SDS011;32620;51.704;7.822;2023-08-20T00:54:14;43.90;;;31.50;;
46415;SDS011;32620;51.704;7.822;2023-08-20T00:56:40;68.25;;;39.97;;
46415;SDS011;32620;51.704;7.822;2023-08-20T00:59:06;52.78;;;34.33;;
46415;SDS011;32620;51.704;7.822;2023-08-20T01:01:31;47.25;;;30.17;;
46415;SDS011;32620;51.704;7.822;2023-08-20T01:03:57;45.92;;;29.98;;
46415;SDS011;32620;51.704;7.822;2023-08-20T01:06:25;45.53;;;30.20;;
46415;SDS011;32620;51.704;7.822;2023-08-20T01:09:25;48.05;;;30.88;;
46415;SDS011;32620;51.704;7.822;2023-08-20T01:12:08;44.65;;;28.95;;
46415;SDS011;32620;51.704;7.822;2023-08-20T01:14:35;47.47;;;31.42;;
46415;SDS011;32620;51.704;7.822;2023-08-20T01:17:00;45.13;;;30.20;;
46415;SDS011;32620;51.704;7.822;2023-08-20T01:19:26;57.90;;;35.70;;
46415;SDS011;32620;51.704;7.822;2023-08-20T01:25:31;68.50;;;43.00;;
46415;SDS011;32620;51.704;7.822;2023-08-20T01:28:17;89.18;;;48.13;;
46415;SDS011;32620;51.704;7.822;2023-08-20T01:30:55;71.72;;;43.63;;
46415;SDS011;32620;51.704;7.822;2023-08-20T01:33:22;70.68;;;41.67;;
46415;SDS011;32620;51.704;7.822;2023-08-20T01:35:49;72.03;;;42.20;;
46415;SDS011;32620;51.704;7.822;2023-08-20T01:38:16;76.30;;;42.40;;
46415;SDS011;32620;51.704;7.822;2023-08-20T01:40:41;67.47;;;41.85;;
46415;SDS011;32620;51.704;7.822;2023-08-20T01:43:07;62.03;;;39.55;;
46415;SDS011;32620;51.704;7.822;2023-08-20T01:45:33;65.85;;;39.67;;
46415;SDS011;32620;51.704;7.822;2023-08-20T01:47:58;63.92;;;38.53;;
46415;SDS011;32620;51.704;7.822;2023-08-20T01:50:24;61.45;;;38.15;;
46415;SDS011;32620;51.704;7.822;2023-08-20T01:52:50;63.45;;;39.10;;
46415;SDS011;32620;51.704;7.822;2023-08-20T01:55:15;85.32;;;47.03;;
46415;SDS011;32620;51.704;7.822;2023-08-20T01:57:41;62.17;;;39.72;;
46415;SDS011;32620;51.704;7.822;2023-08-20T02:00:07;61.53;;;37.60;;
46415;SDS011;32620;51.704;7.822;2023-08-20T02:02:33;65.32;;;39.35;;
46415;SDS011;32620;51.704;7.822;2023-08-20T02:04:59;58.85;;;35.78;;
46415;SDS011;32620;51.704;7.822;2023-08-20T02:07:25;53.58;;;35.20;;
46415;SDS011;32620;51.704;7.822;2023-08-20T02:09:50;51.65;;;32.40;;
46415;SDS011;32620;51.704;7.822;2023-08-20T02:12:17;58.38;;;35.35;;
46415;SDS011;32620;51.704;7.822;2023-08-20T02:14:43;58.45;;;36.30;;
46415;SDS011;32620;51.704;7.822;2023-08-20T02:17:08;51.75;;;32.42;;
46415;SDS011;32620;51.704;7.822;2023-08-20T02:19:34;56.95;;;34.60;;
46415;SDS011;32620;51.704;7.822;2023-08-20T02:22:00;62.00;;;36.63;;
46415;SDS011;32620;51.704;7.822;2023-08-20T02:24:26;59.35;;;36.80;;
46415;SDS011;32620;51.704;7.822;2023-08-20T02:26:51;62.45;;;36.30;;
46415;SDS011;32620;51.704;7.822;2023-08-20T02:29:17;61.85;;;39.50;;
46415;SDS011;32620;51.704;7.822;2023-08-20T02:31:42;58.45;;;37.20;;
46415;SDS011;32620;51.704;7.822;2023-08-20T02:34:08;71.95;;;42.30;;
46415;SDS011;32620;51.704;7.822;2023-08-20T02:36:34;69.97;;;43.50;;
46415;SDS011;32620;51.704;7.822;2023-08-20T02:38:59;73.03;;;45.70;;
46415;SDS011;32620;51.704;7.822;2023-08-20T02:41:25;60.63;;;39.15;;
46415;SDS011;32620;51.704;7.822;2023-08-20T02:43:51;69.63;;;40.70;;
46415;SDS011;32620;51.704;7.822;2023-08-20T02:46:16;72.05;;;44.22;;
46415;SDS011;32620;51.704;7.822;2023-08-20T02:48:42;80.70;;;47.70;;
46415;SDS011;32620;51.704;7.822;2023-08-20T02:51:07;79.95;;;49.17;;
46415;SDS011;32620;51.704;7.822;2023-08-20T02:53:33;73.75;;;45.42;;
46415;SDS011;32620;51.704;7.822;2023-08-20T02:55:59;78.97;;;50.67;;
46415;SDS011;32620;51.704;7.822;2023-08-20T02:58:24;81.22;;;48.85;;
46415;SDS011;32620;51.704;7.822;2023-08-20T03:00:50;83.63;;;50.58;;
46415;SDS011;32620;51.704;7.822;2023-08-20T03:03:16;85.63;;;49.15;;
46415;SDS011;32620;51.704;7.822;2023-08-20T03:05:42;101.50;;;57.00;;
46415;SDS011;32620;51.704;7.822;2023-08-20T03:08:08;99.40;;;56.58;;
46415;SDS011;32620;51.704;7.822;2023-08-20T03:10:34;97.82;;;56.03;;
46415;SDS011;32620;51.704;7.822;2023-08-20T03:13:00;106.40;;;56.17;;
46415;SDS011;32620;51.704;7.822;2023-08-20T03:15:27;98.22;;;56.58;;
46415;SDS011;32620;51.704;7.822;2023-08-20T03:17:53;97.55;;;55.67;;
46415;SDS011;32620;51.704;7.822;2023-08-20T03:20:19;92.45;;;55.35;;
46415;SDS011;32620;51.704;7.822;2023-08-20T03:22:45;108.25;;;60.10;;
46415;SDS011;32620;51.704;7.822;2023-08-20T03:25:10;119.28;;;62.42;;
46415;SDS011;32620;51.704;7.822;2023-08-20T03:27:36;116.63;;;62.65;;
46415;SDS011;32620;51.704;7.822;2023-08-20T03:30:02;97.35;;;54.38;;
46415;SDS011;32620;51.704;7.822;2023-08-20T03:32:29;109.07;;;58.38;;
46415;SDS011;32620;51.704;7.822;2023-08-20T03:34:55;106.32;;;59.55;;
46415;SDS011;32620;51.704;7.822;2023-08-20T03:37:21;110.53;;;59.63;;
46415;SDS011;32620;51.704;7.822;2023-08-20T03:39:47;129.82;;;64.53;;
46415;SDS011;32620;51.704;7.822;2023-08-20T03:42:13;120.38;;;64.40;;
46415;SDS011;32620;51.704;7.822;2023-08-20T03:44:39;135.88;;;66.03;;
46415;SDS011;32620;51.704;7.822;2023-08-20T03:47:04;121.72;;;61.78;;
46415;SDS011;32620;51.704;7.822;2023-08-20T03:49:30;107.07;;;57.90;;
46415;SDS011;32620;51.704;7.822;2023-08-20T03:51:56;92.05;;;51.40;;
46415;SDS011;32620;51.704;7.822;2023-08-20T03:54:21;90.55;;;49.83;;
46415;SDS011;32620;51.704;7.822;2023-08-20T03:56:47;94.07;;;52.67;;
46415;SDS011;32620;51.704;7.822;2023-08-20T03:59:12;97.57;;;53.67;;
46415;SDS011;32620;51.704;7.822;2023-08-20T04:01:38;96.88;;;50.47;;
46415;SDS011;32620;51.704;7.822;2023-08-20T04:04:04;96.05;;;52.38;;
46415;SDS011;32620;51.704;7.822;2023-08-20T04:06:30;107.82;;;55.85;;
46415;SDS011;32620;51.704;7.822;2023-08-20T04:08:55;96.97;;;50.58;;
46415;SDS011;32620;51.704;7.822;2023-08-20T04:11:21;92.22;;;52.08;;
46415;SDS011;32620;51.704;7.822;2023-08-20T04:13:47;87.00;;;47.88;;
46415;SDS011;32620;51.704;7.822;2023-08-20T04:16:12;105.78;;;55.88;;
46415;SDS011;32620;51.704;7.822;2023-08-20T04:18:38;98.57;;;52.20;;
46415;SDS011;32620;51.704;7.822;2023-08-20T04:21:04;88.45;;;47.78;;
46415;SDS011;32620;51.704;7.822;2023-08-20T04:23:30;76.63;;;43.75;;
46415;SDS011;32620;51.704;7.822;2023-08-20T04:25:56;81.63;;;45.42;;
46415;SDS011;32620;51.704;7.822;2023-08-20T04:28:21;80.30;;;44.65;;
46415;SDS011;32620;51.704;7.822;2023-08-20T04:30:47;104.68;;;53.53;;
46415;SDS011;32620;51.704;7.822;2023-08-20T04:33:14;99.55;;;52.58;;
46415;SDS011;32620;51.704;7.822;2023-08-20T04:35:39;108.45;;;55.33;;
46415;SDS011;32620;51.704;7.822;2023-08-20T04:38:05;94.43;;;49.17;;
46415;SDS011;32620;51.704;7.822;2023-08-20T04:40:31;111.88;;;56.38;;
46415;SDS011;32620;51.704;7.822;2023-08-20T04:42:56;103.63;;;52.22;;
46415;SDS011;32620;51.704;7.822;2023-08-20T04:45:22;131.27;;;61.95;;
46415;SDS011;32620;51.704;7.822;2023-08-20T04:47:48;127.55;;;59.20;;
46415;SDS011;32620;51.704;7.822;2023-08-20T04:50:13;141.43;;;63.97;;
46415;SDS011;32620;51.704;7.822;2023-08-20T04:52:39;149.25;;;65.75;;
46415;SDS011;32620;51.704;7.822;2023-08-20T04:55:05;123.43;;;59.58;;
46415;SDS011;32620;51.704;7.822;2023-08-20T04:57:32;137.70;;;62.95;;
46415;SDS011;32620;51.704;7.822;2023-08-20T04:59:58;132.10;;;62.80;;
46415;SDS011;32620;51.704;7.822;2023-08-20T05:02:23;122.63;;;58.33;;
46415;SDS011;32620;51.704;7.822;2023-08-20T05:04:49;113.72;;;56.80;;
46415;SDS011;32620;51.704;7.822;2023-08-20T05:07:15;125.45;;;62.03;;
46415;SDS011;32620;51.704;7.822;2023-08-20T05:09:41;113.25;;;56.20;;
46415;SDS011;32620;51.704;7.822;2023-08-20T05:12:06;131.45;;;62.97;;
46415;SDS011;32620;51.704;7.822;2023-08-20T05:14:32;130.55;;;64.00;;
46415;SDS011;32620;51.704;7.822;2023-08-20T05:16:58;105.95;;;57.70;;
46415;SDS011;32620;51.704;7.822;2023-08-20T05:19:23;105.32;;;54.88;;
46415;SDS011;32620;51.704;7.822;2023-08-20T05:21:49;98.97;;;54.00;;
46415;SDS011;32620;51.704;7.822;2023-08-20T05:24:15;108.10;;;58.58;;
46415;SDS011;32620;51.704;7.822;2023-08-20T05:26:40;98.22;;;52.40;;
46415;SDS011;32620;51.704;7.822;2023-08-20T05:29:06;85.45;;;51.85;;
46415;SDS011;32620;51.704;7.822;2023-08-20T05:31:32;89.32;;;50.53;;
46415;SDS011;32620;51.704;7.822;2023-08-20T05:33:58;86.97;;;50.80;;
46415;SDS011;32620;51.704;7.822;2023-08-20T05:36:24;85.28;;;52.30;;
46415;SDS011;32620;51.704;7.822;2023-08-20T05:38:49;80.88;;;50.33;;
46415;SDS011;32620;51.704;7.822;2023-08-20T05:41:15;75.75;;;47.53;;
46415;SDS011;32620;51.704;7.822;2023-08-20T05:43:40;66.80;;;42.55;;
46415;SDS011;32620;51.704;7.822;2023-08-20T05:46:06;57.17;;;40.42;;
46415;SDS011;32620;51.704;7.822;2023-08-20T05:48:32;50.05;;;36.55;;
46415;SDS011;32620;51.704;7.822;2023-08-20T05:50:57;48.70;;;34.47;;
46415;SDS011;32620;51.704;7.822;2023-08-20T05:53:23;53.65;;;38.42;;
46415;SDS011;32620;51.704;7.822;2023-08-20T05:55:49;51.25;;;36.75;;
46415;SDS011;32620;51.704;7.822;2023-08-20T05:58:14;44.67;;;32.70;;
46415;SDS011;32620;51.704;7.822;2023-08-20T06:00:40;57.40;;;39.65;;
46415;SDS011;32620;51.704;7.822;2023-08-20T06:03:06;58.90;;;41.10;;
46415;SDS011;32620;51.704;7.822;2023-08-20T06:05:34;64.30;;;43.22;;
46415;SDS011;32620;51.704;7.822;2023-08-20T06:07:59;70.07;;;44.10;;
46415;SDS011;32620;51.704;7.822;2023-08-20T06:10:25;64.15;;;44.20;;
46415;SDS011;32620;51.704;7.822;2023-08-20T06:12:51;69.35;;;46.63;;
46415;SDS011;32620;51.704;7.822;2023-08-20T06:15:17;68.45;;;47.13;;
46415;SDS011;32620;51.704;7.822;2023-08-20T06:17:43;74.30;;;44.83;;
46415;SDS011;32620;51.704;7.822;2023-08-20T06:20:08;74.18;;;46.92;;
46415;SDS011;32620;51.704;7.822;2023-08-20T06:22:36;74.30;;;46.65;;
46415;SDS011;32620;51.704;7.822;2023-08-20T06:25:02;75.43;;;47.58;;
46415;SDS011;32620;51.704;7.822;2023-08-20T06:27:28;82.45;;;50.67;;
46415;SDS011;32620;51.704;7.822;2023-08-20T06:29:55;83.40;;;52.45;;
46415;SDS011;32620;51.704;7.822;2023-08-20T06:32:20;91.53;;;54.08;;
46415;SDS011;32620;51.704;7.822;2023-08-20T06:34:47;93.63;;;55.92;;
46415;SDS011;32620;51.704;7.822;2023-08-20T06:37:12;95.15;;;56.45;;
46415;SDS011;32620;51.704;7.822;2023-08-20T06:39:38;91.05;;;55.80;;
46415;SDS011;32620;51.704;7.822;2023-08-20T06:42:03;92.63;;;55.65;;
46415;SDS011;32620;51.704;7.822;2023-08-20T06:44:29;85.97;;;53.95;;
46415;SDS011;32620;51.704;7.822;2023-08-20T06:46:55;91.88;;;55.65;;
46415;SDS011;32620;51.704;7.822;2023-08-20T06:49:20;87.43;;;54.17;;
46415;SDS011;32620;51.704;7.822;2023-08-20T06:51:46;80.82;;;51.85;;
46415;SDS011;32620;51.704;7.822;2023-08-20T06:54:12;75.05;;;48.22;;
46415;SDS011;32620;51.704;7.822;2023-08-20T06:56:39;76.40;;;49.65;;
46415;SDS011;32620;51.704;7.822;2023-08-20T06:59:04;76.55;;;49.45;;
46415;SDS011;32620;51.704;7.822;2023-08-20T07:01:30;72.25;;;46.80;;
46415;SDS011;32620;51.704;7.822;2023-08-20T07:03:55;74.70;;;48.08;;
46415;SDS011;32620;51.704;7.822;2023-08-20T07:06:21;71.50;;;47.85;;
46415;SDS011;32620;51.704;7.822;2023-08-20T07:08:47;69.38;;;45.95;;
46415;SDS011;32620;51.704;7.822;2023-08-20T07:11:12;68.13;;;48.63;;
46415;SDS011;32620;51.704;7.822;2023-08-20T07:13:38;75.07;;;48.67;;
46415;SDS011;32620;51.704;7.822;2023-08-20T07:16:03;69.75;;;46.25;;
46415;SDS011;32620;51.704;7.822;2023-08-20T07:18:29;63.63;;;44.13;;
46415;SDS011;32620;51.704;7.822;2023-08-20T07:20:55;65.30;;;45.35;;
46415;SDS011;32620;51.704;7.822;2023-08-20T07:23:22;68.85;;;47.13;;
46415;SDS011;32620;51.704;7.822;2023-08-20T07:25:48;63.40;;;44.22;;
46415;SDS011;32620;51.704;7.822;2023-08-20T07:28:17;63.00;;;44.70;;
46415;SDS011;32620;51.704;7.822;2023-08-20T07:30:51;63.90;;;44.63;;
46415;SDS011;32620;51.704;7.822;2023-08-20T07:33:17;66.40;;;44.80;;
46415;SDS011;32620;51.704;7.822;2023-08-20T07:35:43;64.03;;;42.97;;
46415;SDS011;32620;51.704;7.822;2023-08-20T07:38:08;57.95;;;41.30;;
46415;SDS011;32620;51.704;7.822;2023-08-20T07:40:34;65.90;;;44.60;;
46415;SDS011;32620;51.704;7.822;2023-08-20T07:43:00;62.08;;;44.15;;
46415;SDS011;32620;51.704;7.822;2023-08-20T07:45:25;61.83;;;42.03;;
46415;SDS011;32620;51.704;7.822;2023-08-20T07:47:51;59.45;;;43.10;;
46415;SDS011;32620;51.704;7.822;2023-08-20T07:50:17;60.78;;;42.42;;
46415;SDS011;32620;51.704;7.822;2023-08-20T07:52:42;59.08;;;42.88;;
46415;SDS011;32620;51.704;7.822;2023-08-20T07:55:08;55.50;;;40.08;;
46415;SDS011;32620;51.704;7.822;2023-08-20T07:57:33;52.08;;;39.25;;
46415;SDS011;32620;51.704;7.822;2023-08-20T07:59:59;50.35;;;39.13;;
46415;SDS011;32620;51.704;7.822;2023-08-20T08:02:25;51.03;;;38.58;;
46415;SDS011;32620;51.704;7.822;2023-08-20T08:04:50;48.33;;;37.30;;
46415;SDS011;32620;51.704;7.822;2023-08-20T08:07:16;48.47;;;37.63;;
46415;SDS011;32620;51.704;7.822;2023-08-20T08:09:41;49.60;;;38.10;;
46415;SDS011;32620;51.704;7.822;2023-08-20T08:12:07;51.03;;;38.67;;
46415;SDS011;32620;51.704;7.822;2023-08-20T08:14:33;50.70;;;39.70;;
46415;SDS011;32620;51.704;7.822;2023-08-20T08:16:58;48.97;;;37.38;;
46415;SDS011;32620;51.704;7.822;2023-08-20T08:19:24;44.40;;;36.13;;
46415;SDS011;32620;51.704;7.822;2023-08-20T08:21:50;44.20;;;35.92;;
46415;SDS011;32620;51.704;7.822;2023-08-20T08:24:15;44.38;;;34.50;;
46415;SDS011;32620;51.704;7.822;2023-08-20T08:26:41;41.30;;;34.45;;
46415;SDS011;32620;51.704;7.822;2023-08-20T08:29:07;42.38;;;33.42;;
46415;SDS011;32620;51.704;7.822;2023-08-20T08:31:34;44.47;;;35.90;;
46415;SDS011;32620;51.704;7.822;2023-08-20T08:34:01;40.55;;;34.65;;
46415;SDS011;32620;51.704;7.822;2023-08-20T08:36:28;44.90;;;34.65;;
46415;SDS011;32620;51.704;7.822;2023-08-20T08:38:54;42.28;;;34.95;;
46415;SDS011;32620;51.704;7.822;2023-08-20T08:41:21;45.22;;;36.75;;
46415;SDS011;32620;51.704;7.822;2023-08-20T08:43:48;44.03;;;34.90;;
46415;SDS011;32620;51.704;7.822;2023-08-20T08:46:14;44.28;;;33.58;;
46415;SDS011;32620;51.704;7.822;2023-08-20T08:48:41;43.45;;;34.95;;
46415;SDS011;32620;51.704;7.822;2023-08-20T08:51:08;41.53;;;33.28;;
46415;SDS011;32620;51.704;7.822;2023-08-20T08:53:34;36.63;;;31.65;;
46415;SDS011;32620;51.704;7.822;2023-08-20T08:56:01;38.15;;;32.35;;
46415;SDS011;32620;51.704;7.822;2023-08-20T08:58:28;34.15;;;29.88;;
46415;SDS011;32620;51.704;7.822;2023-08-20T09:00:54;33.72;;;28.65;;
46415;SDS011;32620;51.704;7.822;2023-08-20T09:03:20;33.83;;;28.92;;
46415;SDS011;32620;51.704;7.822;2023-08-20T09:05:47;35.80;;;30.30;;
46415;SDS011;32620;51.704;7.822;2023-08-20T09:08:23;38.50;;;32.10;;
46415;SDS011;32620;51.704;7.822;2023-08-20T09:10:52;36.58;;;31.13;;
46415;SDS011;32620;51.704;7.822;2023-08-20T09:13:32;31.33;;;26.23;;
46415;SDS011;32620;51.704;7.822;2023-08-20T09:16:07;33.55;;;28.55;;
46415;SDS011;32620;51.704;7.822;2023-08-20T09:18:42;32.10;;;27.63;;
46415;SDS011;32620;51.704;7.822;2023-08-20T09:21:10;30.40;;;26.98;;
46415;SDS011;32620;51.704;7.822;2023-08-20T09:23:37;32.10;;;26.63;;
46415;SDS011;32620;51.704;7.822;2023-08-20T09:26:04;34.33;;;29.85;;
46415;SDS011;32620;51.704;7.822;2023-08-20T09:28:40;36.53;;;29.83;;
46415;SDS011;32620;51.704;7.822;2023-08-20T09:31:07;34.28;;;29.95;;
46415;SDS011;32620;51.704;7.822;2023-08-20T09:33:33;33.60;;;29.52;;
46415;SDS011;32620;51.704;7.822;2023-08-20T09:35:59;29.45;;;25.63;;
46415;SDS011;32620;51.704;7.822;2023-08-20T09:38:25;31.23;;;25.80;;
46415;SDS011;32620;51.704;7.822;2023-08-20T09:40:52;31.00;;;27.70;;
46415;SDS011;32620;51.704;7.822;2023-08-20T09:43:21;23.20;;;20.80;;
46415;SDS011;32620;51.704;7.822;2023-08-20T09:45:54;24.98;;;22.27;;
46415;SDS011;32620;51.704;7.822;2023-08-20T09:48:21;25.67;;;21.40;;
46415;SDS011;32620;51.704;7.822;2023-08-20T09:50:48;24.40;;;19.17;;
46415;SDS011;32620;51.704;7.822;2023-08-20T09:56:09;25.30;;;21.85;;
46415;SDS011;32620;51.704;7.822;2023-08-20T09:58:40;20.63;;;18.33;;
46415;SDS011;32620;51.704;7.822;2023-08-20T10:01:06;21.35;;;19.05;;
46415;SDS011;32620;51.704;7.822;2023-08-20T10:03:32;15.70;;;14.10;;
46415;SDS011;32620;51.704;7.822;2023-08-20T10:05:58;15.98;;;12.40;;
46415;SDS011;32620;51.704;7.822;2023-08-20T10:08:26;15.43;;;12.13;;
46415;SDS011;32620;51.704;7.822;2023-08-20T10:10:52;13.00;;;11.77;;
46415;SDS011;32620;51.704;7.822;2023-08-20T10:13:18;13.30;;;10.38;;
46415;SDS011;32620;51.704;7.822;2023-08-20T10:15:44;8.45;;;6.47;;
46415;SDS011;32620;51.704;7.822;2023-08-20T10:18:11;6.20;;;5.20;;
46415;SDS011;32620;51.704;7.822;2023-08-20T10:20:38;9.57;;;7.38;;
46415;SDS011;32620;51.704;7.822;2023-08-20T10:23:05;8.52;;;7.68;;
46415;SDS011;32620;51.704;7.822;2023-08-20T10:25:32;11.23;;;10.02;;
46415;SDS011;32620;51.704;7.822;2023-08-20T10:28:22;11.10;;;8.80;;
46415;SDS011;32620;51.704;7.822;2023-08-20T10:31:12;8.88;;;7.97;;
46415;SDS011;32620;51.704;7.822;2023-08-20T10:33:47;8.48;;;7.57;;
46415;SDS011;32620;51.704;7.822;2023-08-20T10:36:16;10.82;;;8.07;;
46415;SDS011;32620;51.704;7.822;2023-08-20T10:38:47;12.82;;;8.93;;
46415;SDS011;32620;51.704;7.822;2023-08-20T10:41:14;11.20;;;9.77;;
46415;SDS011;32620;51.704;7.822;2023-08-20T10:43:49;15.80;;;10.82;;
46415;SDS011;32620;51.704;7.822;2023-08-20T10:46:16;11.15;;;10.00;;
46415;SDS011;32620;51.704;7.822;2023-08-20T10:48:50;11.48;;;10.32;;
46415;SDS011;32620;51.704;7.822;2023-08-20T10:51:19;10.57;;;9.48;;
46415;SDS011;32620;51.704;7.822;2023-08-20T10:54:07;13.05;;;10.50;;
46415;SDS011;32620;51.704;7.822;2023-08-20T10:59:26;11.35;;;10.23;;
46415;SDS011;32620;51.704;7.822;2023-08-20T11:01:53;10.75;;;9.65;;
46415;SDS011;32620;51.704;7.822;2023-08-20T11:04:20;12.23;;;10.25;;
46415;SDS011;32620;51.704;7.822;2023-08-20T11:06:52;12.40;;;10.27;;
46415;SDS011;32620;51.704;7.822;2023-08-20T11:09:21;12.25;;;10.73;;
46415;SDS011;32620;51.704;7.822;2023-08-20T11:11:48;11.93;;;10.57;;
46415;SDS011;32620;51.704;7.822;2023-08-20T11:14:14;14.23;;;10.75;;
46415;SDS011;32620;51.704;7.822;2023-08-20T11:16:40;13.18;;;11.52;;
46415;SDS011;32620;51.704;7.822;2023-08-20T11:19:09;13.35;;;11.32;;
46415;SDS011;32620;51.704;7.822;2023-08-20T11:21:35;11.48;;;10.27;;
46415;SDS011;32620;51.704;7.822;2023-08-20T11:24:02;12.90;;;10.75;;
46415;SDS011;32620;51.704;7.822;2023-08-20T11:26:29;14.60;;;11.80;;
46415;SDS011;32620;51.704;7.822;2023-08-20T11:28:55;13.30;;;10.50;;
46415;SDS011;32620;51.704;7.822;2023-08-20T11:31:20;14.90;;;11.75;;
46415;SDS011;32620;51.704;7.822;2023-08-20T11:33:46;11.98;;;10.77;;
46415;SDS011;32620;51.704;7.822;2023-08-20T11:36:15;11.73;;;10.52;;
46415;SDS011;32620;51.704;7.822;2023-08-20T11:38:42;10.95;;;9.77;;
46415;SDS011;32620;51.704;7.822;2023-08-20T11:41:13;12.15;;;10.95;;
46415;SDS011;32620;51.704;7.822;2023-08-20T11:43:41;12.80;;;9.43;;
46415;SDS011;32620;51.704;7.822;2023-08-20T11:46:12;10.60;;;8.50;;
46415;SDS011;32620;51.704;7.822;2023-08-20T11:48:57;9.55;;;8.35;;
46415;SDS011;32620;51.704;7.822;2023-08-20T11:51:37;10.18;;;8.15;;
46415;SDS011;32620;51.704;7.822;2023-08-20T11:54:05;10.07;;;8.57;;
46415;SDS011;32620;51.704;7.822;2023-08-20T11:56:33;11.85;;;8.65;;
46415;SDS011;32620;51.704;7.822;2023-08-20T11:58:59;11.10;;;8.65;;
46415;SDS011;32620;51.704;7.822;2023-08-20T12:01:25;8.65;;;7.75;;
46415;SDS011;32620;51.704;7.822;2023-08-20T12:03:59;10.90;;;8.40;;
46415;SDS011;32620;51.704;7.822;2023-08-20T12:06:28;9.30;;;7.97;;
46415;SDS011;32620;51.704;7.822;2023-08-20T12:08:56;9.77;;;8.02;;
46415;SDS011;32620;51.704;7.822;2023-08-20T12:11:24;9.32;;;7.95;;
46415;SDS011;32620;51.704;7.822;2023-08-20T12:13:51;9.43;;;7.53;;
46415;SDS011;32620;51.704;7.822;2023-08-20T12:16:17;11.07;;;8.23;;
46415;SDS011;32620;51.704;7.822;2023-08-20T12:18:43;7.80;;;7.00;;
46415;SDS011;32620;51.704;7.822;2023-08-20T12:21:11;8.10;;;6.68;;
46415;SDS011;32620;51.704;7.822;2023-08-20T12:23:36;9.05;;;7.50;;
46415;SDS011;32620;51.704;7.822;2023-08-20T12:26:02;8.82;;;7.32;;
46415;SDS011;32620;51.704;7.822;2023-08-20T12:28:28;11.10;;;7.53;;
46415;SDS011;32620;51.704;7.822;2023-08-20T12:30:54;8.77;;;7.30;;
46415;SDS011;32620;51.704;7.822;2023-08-20T12:33:20;7.85;;;7.05;;
46415;SDS011;32620;51.704;7.822;2023-08-20T12:35:46;9.15;;;6.82;;
46415;SDS011;32620;51.704;7.822;2023-08-20T12:38:12;7.95;;;7.15;;
46415;SDS011;32620;51.704;7.822;2023-08-20T12:40:37;8.00;;;7.20;;
46415;SDS011;32620;51.704;7.822;2023-08-20T12:43:03;12.05;;;7.22;;
46415;SDS011;32620;51.704;7.822;2023-08-20T12:45:29;9.32;;;7.20;;
46415;SDS011;32620;51.704;7.822;2023-08-20T12:47:55;12.48;;;7.30;;
46415;SDS011;32620;51.704;7.822;2023-08-20T12:50:20;9.57;;;6.93;;
46415;SDS011;32620;51.704;7.822;2023-08-20T12:52:46;9.98;;;7.70;;
46415;SDS011;32620;51.704;7.822;2023-08-20T12:55:14;8.32;;;6.90;;
46415;SDS011;32620;51.704;7.822;2023-08-20T12:57:51;12.68;;;7.97;;
46415;SDS011;32620;51.704;7.822;2023-08-20T13:00:19;9.48;;;8.48;;
46415;SDS011;32620;51.704;7.822;2023-08-20T13:02:46;8.90;;;7.63;;
46415;SDS011;32620;51.704;7.822;2023-08-20T13:05:12;10.23;;;9.05;;
46415;SDS011;32620;51.704;7.822;2023-08-20T13:07:38;10.82;;;9.75;;
46415;SDS011;32620;51.704;7.822;2023-08-20T13:10:04;10.43;;;8.75;;
46415;SDS011;32620;51.704;7.822;2023-08-20T13:12:30;11.55;;;9.60;;
46415;SDS011;32620;51.704;7.822;2023-08-20T13:14:58;12.40;;;10.45;;
46415;SDS011;32620;51.704;7.822;2023-08-20T13:17:24;12.45;;;10.25;;
46415;SDS011;32620;51.704;7.822;2023-08-20T13:19:51;15.25;;;11.88;;
46415;SDS011;32620;51.704;7.822;2023-08-20T13:22:16;17.02;;;12.05;;
46415;SDS011;32620;51.704;7.822;2023-08-20T13:24:42;13.73;;;12.10;;
46415;SDS011;32620;51.704;7.822;2023-08-20T13:27:08;15.65;;;12.90;;
46415;SDS011;32620;51.704;7.822;2023-08-20T13:29:34;15.13;;;12.85;;
46415;SDS011;32620;51.704;7.822;2023-08-20T13:31:59;14.30;;;12.80;;
46415;SDS011;32620;51.704;7.822;2023-08-20T13:34:25;14.70;;;13.07;;
46415;SDS011;32620;51.704;7.822;2023-08-20T13:36:51;16.13;;;14.20;;
46415;SDS011;32620;51.704;7.822;2023-08-20T13:39:17;14.98;;;13.18;;
46415;SDS011;32620;51.704;7.822;2023-08-20T13:41:43;16.38;;;13.93;;
46415;SDS011;32620;51.704;7.822;2023-08-20T13:44:11;15.85;;;13.73;;
46415;SDS011;32620;51.704;7.822;2023-08-20T13:46:37;14.90;;;13.48;;
46415;SDS011;32620;51.704;7.822;2023-08-20T13:49:02;14.52;;;13.02;;
46415;SDS011;32620;51.704;7.822;2023-08-20T13:51:29;15.05;;;13.48;;
46415;SDS011;32620;51.704;7.822;2023-08-20T13:53:55;14.18;;;12.43;;
46415;SDS011;32620;51.704;7.822;2023-08-20T13:56:20;14.98;;;13.50;;
46415;SDS011;32620;51.704;7.822;2023-08-20T13:58:46;14.45;;;13.05;;
46415;SDS011;32620;51.704;7.822;2023-08-20T14:01:11;14.88;;;12.63;;
46415;SDS011;32620;51.704;7.822;2023-08-20T14:03:38;14.52;;;13.18;;
46415;SDS011;32620;51.704;7.822;2023-08-20T14:06:05;14.85;;;13.38;;
46415;SDS011;32620;51.704;7.822;2023-08-20T14:08:30;15.23;;;13.68;;
46415;SDS011;32620;51.704;7.822;2023-08-20T14:10:57;14.73;;;13.40;;
46415;SDS011;32620;51.704;7.822;2023-08-20T14:13:22;13.75;;;12.30;;
46415;SDS011;32620;51.704;7.822;2023-08-20T14:15:48;13.48;;;12.27;;
46415;SDS011;32620;51.704;7.822;2023-08-20T14:18:14;14.00;;;12.60;;
46415;SDS011;32620;51.704;7.822;2023-08-20T14:20:39;16.52;;;12.55;;
46415;SDS011;32620;51.704;7.822;2023-08-20T14:23:05;13.73;;;12.20;;
46415;SDS011;32620;51.704;7.822;2023-08-20T14:25:31;13.80;;;12.52;;
46415;SDS011;32620;51.704;7.822;2023-08-20T14:27:56;13.93;;;12.55;;
46415;SDS011;32620;51.704;7.822;2023-08-20T14:30:22;14.73;;;12.32;;